sensor_id;sensor_type;location;lat;lon;timestamp;temperature;humidity
44695;DHT22;32845;59.422;17.930;2023-04-15T00:01:04;2.80;99.90
44695;DHT22;32845;59.422;17.930;2023-04-15T00:05:35;2.80;99.90
44695;DHT22;32845;59.422;17.930;2023-04-15T00:10:07;2.80;99.90
44695;DHT22;32845;59.422;17.930;2023-04-15T00:14:38;2.80;99.90
44695;DHT22;32845;59.422;17.930;2023-04-15T00:19:09;2.70;99.90
44695;DHT22;32845;59.422;17.930;2023-04-15T00:23:40;2.80;99.90
44695;DHT22;32845;59.422;17.930;2023-04-15T00:28:11;2.70;99.90
44695;DHT22;32845;59.422;17.930;2023-04-15T00:32:42;2.70;99.90
44695;DHT22;32845;59.422;17.930;2023-04-15T00:37:12;2.70;99.90
44695;DHT22;32845;59.422;17.930;2023-04-15T00:41:44;2.70;99.90
44695;DHT22;32845;59.422;17.930;2023-04-15T00:46:16;2.70;99.90
44695;DHT22;32845;59.422;17.930;2023-04-15T00:50:50;2.70;99.90
44695;DHT22;32845;59.422;17.930;2023-04-15T00:55:20;2.70;99.90
44695;DHT22;32845;59.422;17.930;2023-04-15T00:59:51;2.60;99.90
44695;DHT22;32845;59.422;17.930;2023-04-15T01:04:22;2.60;99.90
44695;DHT22;32845;59.422;17.930;2023-04-15T01:08:53;2.60;99.90
44695;DHT22;32845;59.422;17.930;2023-04-15T01:13:25;2.60;99.90
44695;DHT22;32845;59.422;17.930;2023-04-15T01:17:58;2.60;99.90
44695;DHT22;32845;59.422;17.930;2023-04-15T01:22:31;2.60;99.90
44695;DHT22;32845;59.422;17.930;2023-04-15T01:27:03;2.50;99.90
44695;DHT22;32845;59.422;17.930;2023-04-15T01:31:34;2.50;99.90
44695;DHT22;32845;59.422;17.930;2023-04-15T01:36:06;2.50;99.90
44695;DHT22;32845;59.422;17.930;2023-04-15T01:40:40;2.60;99.90
44695;DHT22;32845;59.422;17.930;2023-04-15T01:45:11;2.60;99.90
44695;DHT22;32845;59.422;17.930;2023-04-15T01:49:43;2.60;99.90
44695;DHT22;32845;59.422;17.930;2023-04-15T01:54:14;2.60;99.90
44695;DHT22;32845;59.422;17.930;2023-04-15T01:58:45;2.60;99.90
44695;DHT22;32845;59.422;17.930;2023-04-15T02:03:15;2.70;99.90
44695;DHT22;32845;59.422;17.930;2023-04-15T02:07:47;2.70;99.90
44695;DHT22;32845;59.422;17.930;2023-04-15T02:12:18;2.70;99.90
44695;DHT22;32845;59.422;17.930;2023-04-15T02:16:49;2.80;99.90
44695;DHT22;32845;59.422;17.930;2023-04-15T02:21:19;2.90;99.90
44695;DHT22;32845;59.422;17.930;2023-04-15T02:25:50;2.90;99.90
44695;DHT22;32845;59.422;17.930;2023-04-15T02:30:21;2.90;99.90
44695;DHT22;32845;59.422;17.930;2023-04-15T02:34:53;3.00;99.90
44695;DHT22;32845;59.422;17.930;2023-04-15T02:39:24;3.00;99.90
44695;DHT22;32845;59.422;17.930;2023-04-15T02:43:55;3.10;99.90
44695;DHT22;32845;59.422;17.930;2023-04-15T02:48:26;3.10;99.90
44695;DHT22;32845;59.422;17.930;2023-04-15T02:52:57;3.20;99.90
44695;DHT22;32845;59.422;17.930;2023-04-15T02:57:28;3.20;99.90
44695;DHT22;32845;59.422;17.930;2023-04-15T03:01:59;3.20;99.90
44695;DHT22;32845;59.422;17.930;2023-04-15T03:06:30;3.30;99.90
44695;DHT22;32845;59.422;17.930;2023-04-15T03:11:01;3.30;99.90
44695;DHT22;32845;59.422;17.930;2023-04-15T03:15:32;3.30;99.90
44695;DHT22;32845;59.422;17.930;2023-04-15T03:20:04;3.40;99.90
44695;DHT22;32845;59.422;17.930;2023-04-15T03:24:35;3.40;99.90
44695;DHT22;32845;59.422;17.930;2023-04-15T03:29:05;3.40;99.90
44695;DHT22;32845;59.422;17.930;2023-04-15T03:33:36;3.50;99.90
44695;DHT22;32845;59.422;17.930;2023-04-15T03:38:07;3.50;99.90
44695;DHT22;32845;59.422;17.930;2023-04-15T03:42:37;3.50;99.90
44695;DHT22;32845;59.422;17.930;2023-04-15T03:47:08;3.50;99.90
44695;DHT22;32845;59.422;17.930;2023-04-15T03:51:39;3.50;99.90
44695;DHT22;32845;59.422;17.930;2023-04-15T03:56:10;3.60;99.90
44695;DHT22;32845;59.422;17.930;2023-04-15T04:00:40;3.60;99.90
44695;DHT22;32845;59.422;17.930;2023-04-15T04:05:11;3.60;99.90
44695;DHT22;32845;59.422;17.930;2023-04-15T04:09:42;3.60;99.90
44695;DHT22;32845;59.422;17.930;2023-04-15T04:14:13;3.70;99.90
44695;DHT22;32845;59.422;17.930;2023-04-15T04:18:43;3.70;99.90
44695;DHT22;32845;59.422;17.930;2023-04-15T04:23:14;3.80;99.90
44695;DHT22;32845;59.422;17.930;2023-04-15T04:27:45;3.80;99.90
44695;DHT22;32845;59.422;17.930;2023-04-15T04:32:16;3.90;99.90
44695;DHT22;32845;59.422;17.930;2023-04-15T04:36:47;3.90;99.90
44695;DHT22;32845;59.422;17.930;2023-04-15T04:41:17;4.00;99.90
44695;DHT22;32845;59.422;17.930;2023-04-15T04:45:48;4.10;99.90
44695;DHT22;32845;59.422;17.930;2023-04-15T04:50:19;4.20;99.90
44695;DHT22;32845;59.422;17.930;2023-04-15T04:54:49;4.30;99.90
44695;DHT22;32845;59.422;17.930;2023-04-15T04:59:20;4.30;99.90
44695;DHT22;32845;59.422;17.930;2023-04-15T05:03:51;4.30;99.90
44695;DHT22;32845;59.422;17.930;2023-04-15T05:08:21;4.30;99.90
44695;DHT22;32845;59.422;17.930;2023-04-15T05:12:57;4.30;99.90
44695;DHT22;32845;59.422;17.930;2023-04-15T05:17:28;4.30;99.90
44695;DHT22;32845;59.422;17.930;2023-04-15T05:22:01;4.40;99.90
44695;DHT22;32845;59.422;17.930;2023-04-15T05:26:32;4.40;99.90
44695;DHT22;32845;59.422;17.930;2023-04-15T05:31:03;4.40;99.90
44695;DHT22;32845;59.422;17.930;2023-04-15T05:35:34;4.50;99.90
44695;DHT22;32845;59.422;17.930;2023-04-15T05:40:05;4.50;99.90
44695;DHT22;32845;59.422;17.930;2023-04-15T05:44:36;4.60;99.90
44695;DHT22;32845;59.422;17.930;2023-04-15T05:49:06;4.70;99.90
44695;DHT22;32845;59.422;17.930;2023-04-15T05:53:37;4.70;99.90
44695;DHT22;32845;59.422;17.930;2023-04-15T05:58:08;4.80;99.90
44695;DHT22;32845;59.422;17.930;2023-04-15T06:02:38;4.90;99.90
44695;DHT22;32845;59.422;17.930;2023-04-15T06:07:09;5.00;99.90
44695;DHT22;32845;59.422;17.930;2023-04-15T06:11:40;5.10;99.90
44695;DHT22;32845;59.422;17.930;2023-04-15T06:16:11;5.20;99.90
44695;DHT22;32845;59.422;17.930;2023-04-15T06:20:42;5.30;99.90
44695;DHT22;32845;59.422;17.930;2023-04-15T06:25:12;5.50;99.90
44695;DHT22;32845;59.422;17.930;2023-04-15T06:29:43;5.60;99.90
44695;DHT22;32845;59.422;17.930;2023-04-15T06:34:14;5.60;99.90
44695;DHT22;32845;59.422;17.930;2023-04-15T06:38:45;5.70;99.90
44695;DHT22;32845;59.422;17.930;2023-04-15T06:43:15;5.90;99.90
44695;DHT22;32845;59.422;17.930;2023-04-15T06:47:46;5.90;99.90
44695;DHT22;32845;59.422;17.930;2023-04-15T06:52:17;6.00;99.90
44695;DHT22;32845;59.422;17.930;2023-04-15T06:56:47;6.10;99.90
44695;DHT22;32845;59.422;17.930;2023-04-15T07:01:18;6.20;99.90
44695;DHT22;32845;59.422;17.930;2023-04-15T07:05:49;6.20;99.90
44695;DHT22;32845;59.422;17.930;2023-04-15T07:10:20;6.30;99.90
44695;DHT22;32845;59.422;17.930;2023-04-15T07:14:51;6.40;99.90
44695;DHT22;32845;59.422;17.930;2023-04-15T07:19:21;6.50;99.90
44695;DHT22;32845;59.422;17.930;2023-04-15T07:23:52;6.60;99.90
44695;DHT22;32845;59.422;17.930;2023-04-15T07:28:23;6.70;99.90
44695;DHT22;32845;59.422;17.930;2023-04-15T07:32:54;6.80;99.90
44695;DHT22;32845;59.422;17.930;2023-04-15T07:37:24;6.90;99.90
44695;DHT22;32845;59.422;17.930;2023-04-15T07:41:55;6.90;99.90
44695;DHT22;32845;59.422;17.930;2023-04-15T07:46:26;7.00;99.90
44695;DHT22;32845;59.422;17.930;2023-04-15T07:50:57;7.10;99.90
44695;DHT22;32845;59.422;17.930;2023-04-15T07:55:28;7.20;99.90
44695;DHT22;32845;59.422;17.930;2023-04-15T08:00:00;7.30;99.90
44695;DHT22;32845;59.422;17.930;2023-04-15T08:04:31;7.40;99.90
44695;DHT22;32845;59.422;17.930;2023-04-15T08:09:03;7.50;99.90
44695;DHT22;32845;59.422;17.930;2023-04-15T08:13:33;7.70;99.90
44695;DHT22;32845;59.422;17.930;2023-04-15T08:18:04;7.80;99.90
44695;DHT22;32845;59.422;17.930;2023-04-15T08:22:40;7.80;99.90
44695;DHT22;32845;59.422;17.930;2023-04-15T08:27:11;7.80;99.90
44695;DHT22;32845;59.422;17.930;2023-04-15T08:31:42;7.90;99.90
44695;DHT22;32845;59.422;17.930;2023-04-15T08:36:12;8.20;99.90
44695;DHT22;32845;59.422;17.930;2023-04-15T08:40:45;8.20;99.90
44695;DHT22;32845;59.422;17.930;2023-04-15T08:45:17;8.40;99.90
44695;DHT22;32845;59.422;17.930;2023-04-15T08:49:48;8.60;99.90
44695;DHT22;32845;59.422;17.930;2023-04-15T08:54:23;8.80;99.90
44695;DHT22;32845;59.422;17.930;2023-04-15T08:58:54;8.90;99.90
44695;DHT22;32845;59.422;17.930;2023-04-15T09:03:25;9.10;99.90
44695;DHT22;32845;59.422;17.930;2023-04-15T09:07:56;9.30;99.90
44695;DHT22;32845;59.422;17.930;2023-04-15T09:12:27;9.60;99.90
44695;DHT22;32845;59.422;17.930;2023-04-15T09:16:59;9.70;99.90
44695;DHT22;32845;59.422;17.930;2023-04-15T09:21:30;9.80;99.90
44695;DHT22;32845;59.422;17.930;2023-04-15T09:26:01;10.10;99.90
44695;DHT22;32845;59.422;17.930;2023-04-15T09:30:32;10.20;99.90
44695;DHT22;32845;59.422;17.930;2023-04-15T09:35:10;10.40;99.90
44695;DHT22;32845;59.422;17.930;2023-04-15T09:39:49;10.60;99.90
44695;DHT22;32845;59.422;17.930;2023-04-15T09:44:24;10.80;99.70
44695;DHT22;32845;59.422;17.930;2023-04-15T09:49:09;10.90;98.40
44695;DHT22;32845;59.422;17.930;2023-04-15T09:53:40;11.30;98.80
44695;DHT22;32845;59.422;17.930;2023-04-15T09:58:27;11.50;99.60
44695;DHT22;32845;59.422;17.930;2023-04-15T10:02:57;11.50;94.70
44695;DHT22;32845;59.422;17.930;2023-04-15T10:07:28;11.50;95.10
44695;DHT22;32845;59.422;17.930;2023-04-15T10:12:01;11.70;96.10
44695;DHT22;32845;59.422;17.930;2023-04-15T10:16:35;12.10;98.50
44695;DHT22;32845;59.422;17.930;2023-04-15T10:21:08;12.40;94.90
44695;DHT22;32845;59.422;17.930;2023-04-15T10:25:38;12.40;96.10
44695;DHT22;32845;59.422;17.930;2023-04-15T10:30:10;12.50;95.10
44695;DHT22;32845;59.422;17.930;2023-04-15T10:34:41;12.60;95.90
44695;DHT22;32845;59.422;17.930;2023-04-15T10:39:41;12.70;94.40
44695;DHT22;32845;59.422;17.930;2023-04-15T10:44:12;13.00;95.40
44695;DHT22;32845;59.422;17.930;2023-04-15T10:48:50;13.20;92.40
44695;DHT22;32845;59.422;17.930;2023-04-15T10:53:28;13.40;91.90
44695;DHT22;32845;59.422;17.930;2023-04-15T10:58:00;13.80;92.30
44695;DHT22;32845;59.422;17.930;2023-04-15T11:07:14;14.20;88.40
44695;DHT22;32845;59.422;17.930;2023-04-15T11:12:07;14.80;89.80
44695;DHT22;32845;59.422;17.930;2023-04-15T11:16:42;15.10;80.80
44695;DHT22;32845;59.422;17.930;2023-04-15T11:21:14;15.40;90.40
44695;DHT22;32845;59.422;17.930;2023-04-15T11:25:45;15.70;84.70
44695;DHT22;32845;59.422;17.930;2023-04-15T11:30:28;17.40;76.60
44695;DHT22;32845;59.422;17.930;2023-04-15T11:34:58;19.80;73.70
44695;DHT22;32845;59.422;17.930;2023-04-15T11:39:29;20.70;67.90
44695;DHT22;32845;59.422;17.930;2023-04-15T11:44:00;21.80;61.80
44695;DHT22;32845;59.422;17.930;2023-04-15T11:48:32;21.90;68.20
44695;DHT22;32845;59.422;17.930;2023-04-15T11:53:04;21.20;60.40
44695;DHT22;32845;59.422;17.930;2023-04-15T11:57:35;21.20;63.30
44695;DHT22;32845;59.422;17.930;2023-04-15T12:02:12;20.90;65.40
44695;DHT22;32845;59.422;17.930;2023-04-15T12:06:44;22.20;61.70
44695;DHT22;32845;59.422;17.930;2023-04-15T12:11:19;22.80;58.10
44695;DHT22;32845;59.422;17.930;2023-04-15T12:15:50;20.70;60.90
44695;DHT22;32845;59.422;17.930;2023-04-15T12:20:25;20.20;63.50
44695;DHT22;32845;59.422;17.930;2023-04-15T12:24:56;18.90;64.20
44695;DHT22;32845;59.422;17.930;2023-04-15T12:29:28;18.40;65.30
44695;DHT22;32845;59.422;17.930;2023-04-15T12:34:00;17.60;66.40
44695;DHT22;32845;59.422;17.930;2023-04-15T12:38:30;17.30;67.20
44695;DHT22;32845;59.422;17.930;2023-04-15T12:43:01;17.00;71.50
44695;DHT22;32845;59.422;17.930;2023-04-15T12:47:32;16.20;70.90
44695;DHT22;32845;59.422;17.930;2023-04-15T12:52:03;15.60;71.90
44695;DHT22;32845;59.422;17.930;2023-04-15T12:56:34;15.80;71.70
44695;DHT22;32845;59.422;17.930;2023-04-15T13:01:05;16.30;75.00
44695;DHT22;32845;59.422;17.930;2023-04-15T13:05:37;16.80;70.90
44695;DHT22;32845;59.422;17.930;2023-04-15T13:10:09;16.70;74.60
44695;DHT22;32845;59.422;17.930;2023-04-15T13:14:40;15.70;72.60
44695;DHT22;32845;59.422;17.930;2023-04-15T13:19:10;15.40;74.50
44695;DHT22;32845;59.422;17.930;2023-04-15T13:23:41;15.10;77.20
44695;DHT22;32845;59.422;17.930;2023-04-15T13:28:12;14.90;73.90
44695;DHT22;32845;59.422;17.930;2023-04-15T13:32:42;14.80;75.50
44695;DHT22;32845;59.422;17.930;2023-04-15T13:37:13;14.70;76.00
44695;DHT22;32845;59.422;17.930;2023-04-15T13:41:44;15.40;73.30
44695;DHT22;32845;59.422;17.930;2023-04-15T13:46:15;15.20;71.90
44695;DHT22;32845;59.422;17.930;2023-04-15T13:50:46;15.50;69.60
44695;DHT22;32845;59.422;17.930;2023-04-15T13:55:16;15.00;67.60
44695;DHT22;32845;59.422;17.930;2023-04-15T13:59:47;14.60;70.50
44695;DHT22;32845;59.422;17.930;2023-04-15T14:04:18;13.80;72.60
44695;DHT22;32845;59.422;17.930;2023-04-15T14:08:48;13.60;73.60
44695;DHT22;32845;59.422;17.930;2023-04-15T14:13:19;13.50;75.70
44695;DHT22;32845;59.422;17.930;2023-04-15T14:17:50;13.20;76.00
44695;DHT22;32845;59.422;17.930;2023-04-15T14:22:21;12.90;74.40
44695;DHT22;32845;59.422;17.930;2023-04-15T14:26:52;12.50;74.90
44695;DHT22;32845;59.422;17.930;2023-04-15T14:31:27;12.00;76.30
44695;DHT22;32845;59.422;17.930;2023-04-15T14:35:58;11.60;77.10
44695;DHT22;32845;59.422;17.930;2023-04-15T14:40:29;11.60;78.90
44695;DHT22;32845;59.422;17.930;2023-04-15T14:45:00;11.40;78.90
44695;DHT22;32845;59.422;17.930;2023-04-15T14:49:31;11.20;79.90
44695;DHT22;32845;59.422;17.930;2023-04-15T14:54:02;11.20;79.20
44695;DHT22;32845;59.422;17.930;2023-04-15T14:58:32;11.00;79.00
44695;DHT22;32845;59.422;17.930;2023-04-15T15:03:03;10.90;80.00
44695;DHT22;32845;59.422;17.930;2023-04-15T15:07:38;10.80;78.60
44695;DHT22;32845;59.422;17.930;2023-04-15T15:12:10;10.70;80.10
44695;DHT22;32845;59.422;17.930;2023-04-15T15:16:41;10.70;80.00
44695;DHT22;32845;59.422;17.930;2023-04-15T15:21:12;10.60;79.40
44695;DHT22;32845;59.422;17.930;2023-04-15T15:25:44;10.40;80.60
44695;DHT22;32845;59.422;17.930;2023-04-15T15:30:15;10.60;80.90
44695;DHT22;32845;59.422;17.930;2023-04-15T15:34:45;10.60;81.00
44695;DHT22;32845;59.422;17.930;2023-04-15T15:39:16;10.90;79.30
44695;DHT22;32845;59.422;17.930;2023-04-15T15:43:47;10.80;77.90
44695;DHT22;32845;59.422;17.930;2023-04-15T15:48:17;10.80;74.90
44695;DHT22;32845;59.422;17.930;2023-04-15T15:52:48;10.60;78.00
44695;DHT22;32845;59.422;17.930;2023-04-15T15:57:19;10.50;77.10
44695;DHT22;32845;59.422;17.930;2023-04-15T16:01:50;10.40;77.50
44695;DHT22;32845;59.422;17.930;2023-04-15T16:06:21;10.30;77.80
44695;DHT22;32845;59.422;17.930;2023-04-15T16:10:51;10.00;75.20
44695;DHT22;32845;59.422;17.930;2023-04-15T16:15:24;9.70;77.90
44695;DHT22;32845;59.422;17.930;2023-04-15T16:19:55;9.70;77.50
44695;DHT22;32845;59.422;17.930;2023-04-15T16:24:28;9.40;78.20
44695;DHT22;32845;59.422;17.930;2023-04-15T16:29:00;9.30;78.50
44695;DHT22;32845;59.422;17.930;2023-04-15T16:33:31;8.90;79.40
44695;DHT22;32845;59.422;17.930;2023-04-15T16:38:02;8.80;81.60
44695;DHT22;32845;59.422;17.930;2023-04-15T16:42:33;8.70;80.70
44695;DHT22;32845;59.422;17.930;2023-04-15T16:47:03;8.60;82.10
44695;DHT22;32845;59.422;17.930;2023-04-15T16:51:35;8.60;82.70
44695;DHT22;32845;59.422;17.930;2023-04-15T16:56:05;8.70;83.70
44695;DHT22;32845;59.422;17.930;2023-04-15T17:00:36;8.60;83.00
44695;DHT22;32845;59.422;17.930;2023-04-15T17:05:07;8.70;83.50
44695;DHT22;32845;59.422;17.930;2023-04-15T17:09:43;8.60;83.90
44695;DHT22;32845;59.422;17.930;2023-04-15T17:14:14;8.50;84.60
44695;DHT22;32845;59.422;17.930;2023-04-15T17:18:45;8.40;85.60
44695;DHT22;32845;59.422;17.930;2023-04-15T17:23:16;8.20;86.40
44695;DHT22;32845;59.422;17.930;2023-04-15T17:27:47;8.10;87.00
44695;DHT22;32845;59.422;17.930;2023-04-15T17:32:18;7.90;87.80
44695;DHT22;32845;59.422;17.930;2023-04-15T17:36:48;7.80;89.00
44695;DHT22;32845;59.422;17.930;2023-04-15T17:41:21;7.60;88.80
44695;DHT22;32845;59.422;17.930;2023-04-15T17:45:51;7.50;88.90
44695;DHT22;32845;59.422;17.930;2023-04-15T17:50:22;7.40;89.50
44695;DHT22;32845;59.422;17.930;2023-04-15T17:54:53;7.20;89.50
44695;DHT22;32845;59.422;17.930;2023-04-15T17:59:25;7.20;90.00
44695;DHT22;32845;59.422;17.930;2023-04-15T18:03:56;7.10;90.30
44695;DHT22;32845;59.422;17.930;2023-04-15T18:08:27;7.00;90.20
44695;DHT22;32845;59.422;17.930;2023-04-15T18:12:58;6.90;90.30
44695;DHT22;32845;59.422;17.930;2023-04-15T18:17:29;6.80;90.30
44695;DHT22;32845;59.422;17.930;2023-04-15T18:22:00;6.70;90.50
44695;DHT22;32845;59.422;17.930;2023-04-15T18:26:31;6.60;90.40
44695;DHT22;32845;59.422;17.930;2023-04-15T18:31:02;6.50;90.60
44695;DHT22;32845;59.422;17.930;2023-04-15T18:35:33;6.40;90.60
44695;DHT22;32845;59.422;17.930;2023-04-15T18:40:06;6.40;90.80
44695;DHT22;32845;59.422;17.930;2023-04-15T18:44:36;6.30;90.90
44695;DHT22;32845;59.422;17.930;2023-04-15T18:49:07;6.20;91.10
44695;DHT22;32845;59.422;17.930;2023-04-15T18:53:38;6.10;91.20
44695;DHT22;32845;59.422;17.930;2023-04-15T18:58:08;6.00;91.30
44695;DHT22;32845;59.422;17.930;2023-04-15T19:02:39;5.90;91.40
44695;DHT22;32845;59.422;17.930;2023-04-15T19:07:11;5.80;91.60
44695;DHT22;32845;59.422;17.930;2023-04-15T19:11:42;5.80;91.70
44695;DHT22;32845;59.422;17.930;2023-04-15T19:16:13;5.70;91.90
44695;DHT22;32845;59.422;17.930;2023-04-15T19:20:44;5.70;91.90
44695;DHT22;32845;59.422;17.930;2023-04-15T19:25:14;5.60;92.00
44695;DHT22;32845;59.422;17.930;2023-04-15T19:29:45;5.50;92.20
44695;DHT22;32845;59.422;17.930;2023-04-15T19:34:16;5.40;92.30
44695;DHT22;32845;59.422;17.930;2023-04-15T19:38:47;5.40;92.40
44695;DHT22;32845;59.422;17.930;2023-04-15T19:43:17;5.30;92.50
44695;DHT22;32845;59.422;17.930;2023-04-15T19:47:48;5.20;92.50
44695;DHT22;32845;59.422;17.930;2023-04-15T19:52:19;5.10;92.60
44695;DHT22;32845;59.422;17.930;2023-04-15T19:56:51;5.00;92.80
44695;DHT22;32845;59.422;17.930;2023-04-15T20:01:22;5.00;93.00
44695;DHT22;32845;59.422;17.930;2023-04-15T20:05:52;4.90;93.10
44695;DHT22;32845;59.422;17.930;2023-04-15T20:10:23;4.90;93.20
44695;DHT22;32845;59.422;17.930;2023-04-15T20:14:54;4.80;93.40
44695;DHT22;32845;59.422;17.930;2023-04-15T20:19:24;4.70;93.40
44695;DHT22;32845;59.422;17.930;2023-04-15T20:23:55;4.70;93.40
44695;DHT22;32845;59.422;17.930;2023-04-15T20:28:26;4.70;93.50
44695;DHT22;32845;59.422;17.930;2023-04-15T20:32:57;4.70;93.80
44695;DHT22;32845;59.422;17.930;2023-04-15T20:37:29;4.60;93.60
44695;DHT22;32845;59.422;17.930;2023-04-15T20:42:02;4.60;93.60
44695;DHT22;32845;59.422;17.930;2023-04-15T20:46:33;4.50;93.60
44695;DHT22;32845;59.422;17.930;2023-04-15T20:51:03;4.50;93.70
44695;DHT22;32845;59.422;17.930;2023-04-15T20:55:34;4.40;93.70
44695;DHT22;32845;59.422;17.930;2023-04-15T21:00:05;4.40;93.80
44695;DHT22;32845;59.422;17.930;2023-04-15T21:04:38;4.40;93.90
44695;DHT22;32845;59.422;17.930;2023-04-15T21:09:09;4.30;94.20
44695;DHT22;32845;59.422;17.930;2023-04-15T21:13:40;4.20;94.40
44695;DHT22;32845;59.422;17.930;2023-04-15T21:18:10;4.20;94.70
44695;DHT22;32845;59.422;17.930;2023-04-15T21:22:41;4.20;95.10
44695;DHT22;32845;59.422;17.930;2023-04-15T21:27:12;4.10;95.60
44695;DHT22;32845;59.422;17.930;2023-04-15T21:31:42;4.10;95.90
44695;DHT22;32845;59.422;17.930;2023-04-15T21:36:13;4.00;96.30
44695;DHT22;32845;59.422;17.930;2023-04-15T21:40:44;4.00;96.70
44695;DHT22;32845;59.422;17.930;2023-04-15T21:45:15;3.90;97.20
44695;DHT22;32845;59.422;17.930;2023-04-15T21:49:46;3.80;97.40
44695;DHT22;32845;59.422;17.930;2023-04-15T21:54:16;3.80;98.30
44695;DHT22;32845;59.422;17.930;2023-04-15T21:58:47;3.70;98.40
44695;DHT22;32845;59.422;17.930;2023-04-15T22:03:18;3.70;98.40
44695;DHT22;32845;59.422;17.930;2023-04-15T22:07:48;3.60;99.60
44695;DHT22;32845;59.422;17.930;2023-04-15T22:12:19;3.60;99.70
44695;DHT22;32845;59.422;17.930;2023-04-15T22:16:50;3.50;99.90
44695;DHT22;32845;59.422;17.930;2023-04-15T22:21:21;3.40;99.90
44695;DHT22;32845;59.422;17.930;2023-04-15T22:25:51;3.30;99.90
44695;DHT22;32845;59.422;17.930;2023-04-15T22:30:22;3.20;99.90
44695;DHT22;32845;59.422;17.930;2023-04-15T22:34:53;3.20;99.90
44695;DHT22;32845;59.422;17.930;2023-04-15T22:39:24;3.10;99.90
44695;DHT22;32845;59.422;17.930;2023-04-15T22:43:54;3.00;99.90
44695;DHT22;32845;59.422;17.930;2023-04-15T22:48:25;3.00;99.90
44695;DHT22;32845;59.422;17.930;2023-04-15T22:52:56;2.90;99.90
44695;DHT22;32845;59.422;17.930;2023-04-15T22:57:27;2.80;99.90
44695;DHT22;32845;59.422;17.930;2023-04-15T23:01:58;2.80;99.90
44695;DHT22;32845;59.422;17.930;2023-04-15T23:06:28;2.70;99.90
44695;DHT22;32845;59.422;17.930;2023-04-15T23:10:59;2.60;99.90
44695;DHT22;32845;59.422;17.930;2023-04-15T23:15:30;2.60;99.90
44695;DHT22;32845;59.422;17.930;2023-04-15T23:20:01;2.60;99.90
44695;DHT22;32845;59.422;17.930;2023-04-15T23:24:31;2.50;99.90
44695;DHT22;32845;59.422;17.930;2023-04-15T23:29:02;2.40;99.90
44695;DHT22;32845;59.422;17.930;2023-04-15T23:33:32;2.40;99.90
44695;DHT22;32845;59.422;17.930;2023-04-15T23:38:03;2.30;99.90
44695;DHT22;32845;59.422;17.930;2023-04-15T23:42:34;2.30;99.90
44695;DHT22;32845;59.422;17.930;2023-04-15T23:47:05;2.20;99.90
44695;DHT22;32845;59.422;17.930;2023-04-15T23:51:40;2.20;99.90
44695;DHT22;32845;59.422;17.930;2023-04-15T23:56:11;2.10;99.90
